sensor_id;sensor_type;location;lat;lon;timestamp;P1;durP1;ratioP1;P2;durP2;ratioP2
20935;SDS011;10627;54.514;18.532;2022-11-15T00:01:55;57.90;;;27.97;;
20935;SDS011;10627;54.514;18.532;2022-11-15T00:07:14;63.30;;;28.00;;
20935;SDS011;10627;54.514;18.532;2022-11-15T00:12:34;58.43;;;27.37;;
20935;SDS011;10627;54.514;18.532;2022-11-15T00:17:53;61.80;;;27.57;;
20935;SDS011;10627;54.514;18.532;2022-11-15T00:23:12;57.27;;;24.93;;
20935;SDS011;10627;54.514;18.532;2022-11-15T00:28:36;67.00;;;28.47;;
20935;SDS011;10627;54.514;18.532;2022-11-15T00:33:58;63.80;;;26.97;;
20935;SDS011;10627;54.514;18.532;2022-11-15T00:39:17;64.37;;;27.37;;
20935;SDS011;10627;54.514;18.532;2022-11-15T00:44:36;67.97;;;29.33;;
20935;SDS011;10627;54.514;18.532;2022-11-15T00:49:56;60.50;;;27.17;;
20935;SDS011;10627;54.514;18.532;2022-11-15T00:55:15;60.97;;;27.47;;
20935;SDS011;10627;54.514;18.532;2022-11-15T01:00:34;67.40;;;29.27;;
20935;SDS011;10627;54.514;18.532;2022-11-15T01:05:56;62.33;;;26.87;;
20935;SDS011;10627;54.514;18.532;2022-11-15T01:11:17;65.13;;;28.17;;
20935;SDS011;10627;54.514;18.532;2022-11-15T01:16:36;61.10;;;26.80;;
20935;SDS011;10627;54.514;18.532;2022-11-15T01:22:06;62.77;;;28.17;;
20935;SDS011;10627;54.514;18.532;2022-11-15T01:27:26;60.30;;;26.20;;
20935;SDS011;10627;54.514;18.532;2022-11-15T01:32:52;64.97;;;27.17;;
20935;SDS011;10627;54.514;18.532;2022-11-15T01:38:24;64.77;;;26.97;;
20935;SDS011;10627;54.514;18.532;2022-11-15T01:43:53;64.33;;;25.83;;
20935;SDS011;10627;54.514;18.532;2022-11-15T01:49:19;63.27;;;25.23;;
20935;SDS011;10627;54.514;18.532;2022-11-15T01:54:39;59.77;;;24.50;;
20935;SDS011;10627;54.514;18.532;2022-11-15T02:00:00;59.90;;;25.67;;
20935;SDS011;10627;54.514;18.532;2022-11-15T02:05:24;66.63;;;25.43;;
20935;SDS011;10627;54.514;18.532;2022-11-15T02:10:43;67.40;;;26.73;;
20935;SDS011;10627;54.514;18.532;2022-11-15T02:32:11;71.93;;;26.93;;
20935;SDS011;10627;54.514;18.532;2022-11-15T02:43:11;65.57;;;27.03;;
20935;SDS011;10627;54.514;18.532;2022-11-15T02:48:49;59.40;;;25.00;;
20935;SDS011;10627;54.514;18.532;2022-11-15T02:54:11;63.37;;;25.37;;
20935;SDS011;10627;54.514;18.532;2022-11-15T03:16:36;61.00;;;24.70;;
20935;SDS011;10627;54.514;18.532;2022-11-15T03:21:35;65.37;;;22.80;;
20935;SDS011;10627;54.514;18.532;2022-11-15T03:26:56;54.60;;;22.93;;
20935;SDS011;10627;54.514;18.532;2022-11-15T03:32:17;57.70;;;22.90;;
20935;SDS011;10627;54.514;18.532;2022-11-15T03:38:24;55.33;;;22.87;;
20935;SDS011;10627;54.514;18.532;2022-11-15T03:48:57;62.30;;;24.23;;
20935;SDS011;10627;54.514;18.532;2022-11-15T03:54:17;65.80;;;23.30;;
20935;SDS011;10627;54.514;18.532;2022-11-15T03:59:37;61.77;;;23.43;;
20935;SDS011;10627;54.514;18.532;2022-11-15T04:04:56;61.00;;;23.73;;
20935;SDS011;10627;54.514;18.532;2022-11-15T04:10:15;61.60;;;23.97;;
20935;SDS011;10627;54.514;18.532;2022-11-15T04:15:34;65.07;;;23.20;;
20935;SDS011;10627;54.514;18.532;2022-11-15T04:20:54;60.17;;;23.20;;
20935;SDS011;10627;54.514;18.532;2022-11-15T04:26:31;55.47;;;22.20;;
20935;SDS011;10627;54.514;18.532;2022-11-15T04:31:51;67.30;;;23.97;;
20935;SDS011;10627;54.514;18.532;2022-11-15T04:37:10;60.77;;;24.00;;
20935;SDS011;10627;54.514;18.532;2022-11-15T04:42:33;55.57;;;22.07;;
20935;SDS011;10627;54.514;18.532;2022-11-15T04:47:52;52.73;;;20.07;;
20935;SDS011;10627;54.514;18.532;2022-11-15T04:53:12;51.43;;;20.07;;
20935;SDS011;10627;54.514;18.532;2022-11-15T04:58:31;54.30;;;20.43;;
20935;SDS011;10627;54.514;18.532;2022-11-15T05:03:50;58.70;;;21.80;;
20935;SDS011;10627;54.514;18.532;2022-11-15T05:09:28;62.58;;;26.15;;
20935;SDS011;10627;54.514;18.532;2022-11-15T05:14:48;58.43;;;22.40;;
20935;SDS011;10627;54.514;18.532;2022-11-15T05:20:07;57.53;;;22.17;;
20935;SDS011;10627;54.514;18.532;2022-11-15T05:25:26;53.20;;;21.80;;
20935;SDS011;10627;54.514;18.532;2022-11-15T05:30:46;63.07;;;23.17;;
20935;SDS011;10627;54.514;18.532;2022-11-15T05:36:17;56.13;;;22.30;;
20935;SDS011;10627;54.514;18.532;2022-11-15T05:41:42;50.73;;;20.47;;
20935;SDS011;10627;54.514;18.532;2022-11-15T05:47:02;51.10;;;20.17;;
20935;SDS011;10627;54.514;18.532;2022-11-15T05:52:24;56.87;;;20.83;;
20935;SDS011;10627;54.514;18.532;2022-11-15T05:57:44;47.23;;;19.60;;
20935;SDS011;10627;54.514;18.532;2022-11-15T06:03:04;56.10;;;20.87;;
20935;SDS011;10627;54.514;18.532;2022-11-15T06:08:23;55.53;;;20.73;;
20935;SDS011;10627;54.514;18.532;2022-11-15T06:13:42;54.27;;;21.23;;
20935;SDS011;10627;54.514;18.532;2022-11-15T06:19:01;57.83;;;21.10;;
20935;SDS011;10627;54.514;18.532;2022-11-15T06:24:22;53.70;;;21.07;;
20935;SDS011;10627;54.514;18.532;2022-11-15T06:29:41;53.23;;;20.93;;
20935;SDS011;10627;54.514;18.532;2022-11-15T06:35:00;53.03;;;21.07;;
20935;SDS011;10627;54.514;18.532;2022-11-15T06:40:19;51.07;;;19.57;;
20935;SDS011;10627;54.514;18.532;2022-11-15T06:45:38;48.60;;;19.23;;
20935;SDS011;10627;54.514;18.532;2022-11-15T06:50:58;54.87;;;19.50;;
20935;SDS011;10627;54.514;18.532;2022-11-15T06:56:17;49.83;;;18.87;;
20935;SDS011;10627;54.514;18.532;2022-11-15T07:01:36;47.93;;;19.30;;
20935;SDS011;10627;54.514;18.532;2022-11-15T07:06:55;53.47;;;21.27;;
20935;SDS011;10627;54.514;18.532;2022-11-15T07:12:15;55.60;;;21.37;;
20935;SDS011;10627;54.514;18.532;2022-11-15T07:17:34;43.70;;;17.53;;
20935;SDS011;10627;54.514;18.532;2022-11-15T07:23:00;43.63;;;18.40;;
20935;SDS011;10627;54.514;18.532;2022-11-15T07:28:19;41.57;;;17.70;;
20935;SDS011;10627;54.514;18.532;2022-11-15T07:33:38;40.40;;;16.00;;
20935;SDS011;10627;54.514;18.532;2022-11-15T07:38:58;39.30;;;17.40;;
20935;SDS011;10627;54.514;18.532;2022-11-15T07:44:17;44.57;;;20.43;;
20935;SDS011;10627;54.514;18.532;2022-11-15T07:49:36;43.90;;;17.60;;
20935;SDS011;10627;54.514;18.532;2022-11-15T07:54:55;39.43;;;17.43;;
20935;SDS011;10627;54.514;18.532;2022-11-15T08:00:15;42.43;;;18.07;;
20935;SDS011;10627;54.514;18.532;2022-11-15T08:05:35;42.60;;;18.77;;
20935;SDS011;10627;54.514;18.532;2022-11-15T08:10:59;46.57;;;18.63;;
20935;SDS011;10627;54.514;18.532;2022-11-15T08:16:18;45.40;;;17.97;;
20935;SDS011;10627;54.514;18.532;2022-11-15T08:21:37;43.10;;;18.23;;
20935;SDS011;10627;54.514;18.532;2022-11-15T08:26:56;41.10;;;17.93;;
20935;SDS011;10627;54.514;18.532;2022-11-15T08:32:15;38.40;;;16.73;;
20935;SDS011;10627;54.514;18.532;2022-11-15T08:37:34;38.07;;;17.63;;
20935;SDS011;10627;54.514;18.532;2022-11-15T08:42:54;34.40;;;15.80;;
20935;SDS011;10627;54.514;18.532;2022-11-15T08:48:13;35.90;;;15.13;;
20935;SDS011;10627;54.514;18.532;2022-11-15T08:53:33;36.17;;;15.67;;
20935;SDS011;10627;54.514;18.532;2022-11-15T08:58:52;36.70;;;15.37;;
20935;SDS011;10627;54.514;18.532;2022-11-15T09:04:11;38.80;;;15.83;;
20935;SDS011;10627;54.514;18.532;2022-11-15T10:07:44;36.90;;;16.00;;
20935;SDS011;10627;54.514;18.532;2022-11-15T10:13:04;40.33;;;17.20;;
20935;SDS011;10627;54.514;18.532;2022-11-15T10:28:30;43.53;;;17.50;;
20935;SDS011;10627;54.514;18.532;2022-11-15T10:33:32;42.40;;;18.23;;
20935;SDS011;10627;54.514;18.532;2022-11-15T13:14:03;59.47;;;25.23;;
20935;SDS011;10627;54.514;18.532;2022-11-15T13:19:40;57.60;;;25.10;;
20935;SDS011;10627;54.514;18.532;2022-11-15T13:24:41;54.80;;;24.10;;
20935;SDS011;10627;54.514;18.532;2022-11-15T13:29:43;65.17;;;24.70;;
20935;SDS011;10627;54.514;18.532;2022-11-15T13:34:46;57.30;;;24.23;;
20935;SDS011;10627;54.514;18.532;2022-11-15T13:39:49;62.13;;;24.40;;
20935;SDS011;10627;54.514;18.532;2022-11-15T13:44:56;65.40;;;23.73;;
20935;SDS011;10627;54.514;18.532;2022-11-15T13:50:01;62.73;;;25.53;;
20935;SDS011;10627;54.514;18.532;2022-11-15T13:55:09;78.43;;;29.77;;
20935;SDS011;10627;54.514;18.532;2022-11-15T14:05:30;60.63;;;23.90;;
20935;SDS011;10627;54.514;18.532;2022-11-15T14:10:35;61.37;;;25.77;;
20935;SDS011;10627;54.514;18.532;2022-11-15T14:15:37;60.53;;;23.87;;
20935;SDS011;10627;54.514;18.532;2022-11-15T14:20:39;55.80;;;21.23;;
20935;SDS011;10627;54.514;18.532;2022-11-15T14:25:39;58.90;;;22.67;;
20935;SDS011;10627;54.514;18.532;2022-11-15T14:30:40;55.03;;;21.67;;
20935;SDS011;10627;54.514;18.532;2022-11-15T14:40:50;58.60;;;22.90;;
20935;SDS011;10627;54.514;18.532;2022-11-15T14:56:39;52.37;;;20.97;;
20935;SDS011;10627;54.514;18.532;2022-11-15T15:01:44;55.87;;;21.90;;
20935;SDS011;10627;54.514;18.532;2022-11-15T15:06:44;55.07;;;21.23;;
20935;SDS011;10627;54.514;18.532;2022-11-15T15:11:45;52.73;;;19.90;;
20935;SDS011;10627;54.514;18.532;2022-11-15T15:16:46;55.33;;;20.87;;
20935;SDS011;10627;54.514;18.532;2022-11-15T15:27:03;55.23;;;20.17;;
20935;SDS011;10627;54.514;18.532;2022-11-15T15:32:04;47.23;;;19.43;;
20935;SDS011;10627;54.514;18.532;2022-11-15T15:37:26;46.30;;;20.33;;
20935;SDS011;10627;54.514;18.532;2022-11-15T15:42:26;70.47;;;27.37;;
20935;SDS011;10627;54.514;18.532;2022-11-15T15:47:27;55.33;;;23.87;;
20935;SDS011;10627;54.514;18.532;2022-11-15T15:52:27;50.37;;;22.23;;
20935;SDS011;10627;54.514;18.532;2022-11-15T15:57:28;41.97;;;16.87;;
20935;SDS011;10627;54.514;18.532;2022-11-15T16:02:28;37.80;;;17.87;;
20935;SDS011;10627;54.514;18.532;2022-11-15T16:07:30;41.63;;;17.40;;
20935;SDS011;10627;54.514;18.532;2022-11-15T16:12:32;42.27;;;18.17;;
20935;SDS011;10627;54.514;18.532;2022-11-15T16:17:35;52.03;;;21.00;;
20935;SDS011;10627;54.514;18.532;2022-11-15T16:22:37;59.10;;;22.43;;
20935;SDS011;10627;54.514;18.532;2022-11-15T16:27:38;51.53;;;19.80;;
20935;SDS011;10627;54.514;18.532;2022-11-15T16:32:45;44.40;;;19.27;;
20935;SDS011;10627;54.514;18.532;2022-11-15T16:53:36;62.77;;;24.93;;
20935;SDS011;10627;54.514;18.532;2022-11-15T16:58:38;75.97;;;28.20;;
20935;SDS011;10627;54.514;18.532;2022-11-15T17:03:39;77.07;;;30.60;;
20935;SDS011;10627;54.514;18.532;2022-11-15T17:08:41;82.70;;;32.07;;
20935;SDS011;10627;54.514;18.532;2022-11-15T17:29:33;41.20;;;18.00;;
20935;SDS011;10627;54.514;18.532;2022-11-15T17:34:34;47.77;;;20.93;;
20935;SDS011;10627;54.514;18.532;2022-11-15T17:39:36;45.50;;;20.13;;
20935;SDS011;10627;54.514;18.532;2022-11-15T17:44:43;52.77;;;22.97;;
20935;SDS011;10627;54.514;18.532;2022-11-15T17:49:44;56.33;;;21.90;;
20935;SDS011;10627;54.514;18.532;2022-11-15T17:54:45;46.17;;;20.77;;
20935;SDS011;10627;54.514;18.532;2022-11-15T18:04:59;50.30;;;20.70;;
20935;SDS011;10627;54.514;18.532;2022-11-15T18:10:00;60.40;;;25.83;;
20935;SDS011;10627;54.514;18.532;2022-11-15T18:15:01;54.47;;;23.37;;
20935;SDS011;10627;54.514;18.532;2022-11-15T18:20:02;49.73;;;21.07;;
20935;SDS011;10627;54.514;18.532;2022-11-15T18:25:03;52.80;;;23.67;;
20935;SDS011;10627;54.514;18.532;2022-11-15T18:30:05;49.03;;;22.10;;
20935;SDS011;10627;54.514;18.532;2022-11-15T18:35:06;47.57;;;20.70;;
20935;SDS011;10627;54.514;18.532;2022-11-15T18:40:07;51.40;;;21.13;;
20935;SDS011;10627;54.514;18.532;2022-11-15T18:45:08;42.03;;;18.10;;
20935;SDS011;10627;54.514;18.532;2022-11-15T18:50:09;38.17;;;18.27;;
20935;SDS011;10627;54.514;18.532;2022-11-15T18:55:11;55.63;;;22.63;;
20935;SDS011;10627;54.514;18.532;2022-11-15T19:00:13;47.60;;;19.17;;
20935;SDS011;10627;54.514;18.532;2022-11-15T19:05:15;45.23;;;19.20;;
20935;SDS011;10627;54.514;18.532;2022-11-15T19:10:18;61.23;;;25.53;;
20935;SDS011;10627;54.514;18.532;2022-11-15T19:15:19;50.13;;;22.47;;
20935;SDS011;10627;54.514;18.532;2022-11-15T19:20:19;46.40;;;22.50;;
20935;SDS011;10627;54.514;18.532;2022-11-15T19:25:20;54.27;;;22.60;;
20935;SDS011;10627;54.514;18.532;2022-11-15T19:30:22;51.23;;;22.50;;
20935;SDS011;10627;54.514;18.532;2022-11-15T19:35:23;49.57;;;20.10;;
20935;SDS011;10627;54.514;18.532;2022-11-15T19:40:25;52.13;;;24.15;;
20935;SDS011;10627;54.514;18.532;2022-11-15T19:45:25;44.03;;;19.17;;
20935;SDS011;10627;54.514;18.532;2022-11-15T19:50:26;50.20;;;18.73;;
20935;SDS011;10627;54.514;18.532;2022-11-15T19:55:27;40.07;;;18.17;;
20935;SDS011;10627;54.514;18.532;2022-11-15T20:00:28;43.50;;;18.63;;
20935;SDS011;10627;54.514;18.532;2022-11-15T20:05:29;45.53;;;19.43;;
20935;SDS011;10627;54.514;18.532;2022-11-15T20:10:30;42.23;;;18.87;;
20935;SDS011;10627;54.514;18.532;2022-11-15T20:15:31;42.90;;;18.33;;
20935;SDS011;10627;54.514;18.532;2022-11-15T20:20:33;46.30;;;18.70;;
20935;SDS011;10627;54.514;18.532;2022-11-15T20:25:35;52.30;;;21.10;;
20935;SDS011;10627;54.514;18.532;2022-11-15T20:30:37;55.93;;;23.07;;
20935;SDS011;10627;54.514;18.532;2022-11-15T20:35:38;59.80;;;25.17;;
20935;SDS011;10627;54.514;18.532;2022-11-15T20:40:40;61.07;;;24.70;;
20935;SDS011;10627;54.514;18.532;2022-11-15T20:45:45;55.33;;;23.80;;
20935;SDS011;10627;54.514;18.532;2022-11-15T20:50:46;56.80;;;22.83;;
20935;SDS011;10627;54.514;18.532;2022-11-15T20:55:48;53.53;;;22.20;;
20935;SDS011;10627;54.514;18.532;2022-11-15T21:00:53;57.43;;;22.77;;
20935;SDS011;10627;54.514;18.532;2022-11-15T21:05:55;49.53;;;22.30;;
20935;SDS011;10627;54.514;18.532;2022-11-15T21:10:55;55.60;;;23.90;;
20935;SDS011;10627;54.514;18.532;2022-11-15T21:16:15;48.73;;;22.40;;
20935;SDS011;10627;54.514;18.532;2022-11-15T21:21:17;54.67;;;23.10;;
20935;SDS011;10627;54.514;18.532;2022-11-15T21:26:17;50.90;;;20.53;;
20935;SDS011;10627;54.514;18.532;2022-11-15T21:31:18;59.17;;;24.73;;
20935;SDS011;10627;54.514;18.532;2022-11-15T21:36:19;54.77;;;23.90;;
20935;SDS011;10627;54.514;18.532;2022-11-15T21:41:20;56.47;;;24.07;;
20935;SDS011;10627;54.514;18.532;2022-11-15T21:46:21;53.80;;;24.30;;
20935;SDS011;10627;54.514;18.532;2022-11-15T21:51:22;58.73;;;25.87;;
20935;SDS011;10627;54.514;18.532;2022-11-15T21:56:23;68.23;;;27.43;;
20935;SDS011;10627;54.514;18.532;2022-11-15T22:01:25;66.87;;;26.03;;
20935;SDS011;10627;54.514;18.532;2022-11-15T22:06:45;68.40;;;30.07;;
20935;SDS011;10627;54.514;18.532;2022-11-15T22:11:46;54.90;;;23.23;;
20935;SDS011;10627;54.514;18.532;2022-11-15T22:16:47;47.30;;;23.10;;
20935;SDS011;10627;54.514;18.532;2022-11-15T22:21:47;53.40;;;22.37;;
20935;SDS011;10627;54.514;18.532;2022-11-15T22:26:49;41.20;;;18.23;;
20935;SDS011;10627;54.514;18.532;2022-11-15T22:31:50;45.60;;;19.23;;
20935;SDS011;10627;54.514;18.532;2022-11-15T22:36:51;42.30;;;19.20;;
20935;SDS011;10627;54.514;18.532;2022-11-15T22:41:52;49.93;;;19.93;;
20935;SDS011;10627;54.514;18.532;2022-11-15T22:46:53;39.23;;;18.13;;
20935;SDS011;10627;54.514;18.532;2022-11-15T22:51:54;39.63;;;18.40;;
20935;SDS011;10627;54.514;18.532;2022-11-15T22:56:55;37.23;;;17.63;;
20935;SDS011;10627;54.514;18.532;2022-11-15T23:01:56;46.13;;;21.67;;
20935;SDS011;10627;54.514;18.532;2022-11-15T23:06:58;40.67;;;19.13;;
20935;SDS011;10627;54.514;18.532;2022-11-15T23:11:59;47.60;;;20.87;;
20935;SDS011;10627;54.514;18.532;2022-11-15T23:17:18;39.40;;;19.50;;
20935;SDS011;10627;54.514;18.532;2022-11-15T23:22:19;46.37;;;19.93;;
20935;SDS011;10627;54.514;18.532;2022-11-15T23:27:38;46.93;;;20.33;;
20935;SDS011;10627;54.514;18.532;2022-11-15T23:32:39;47.33;;;18.93;;
20935;SDS011;10627;54.514;18.532;2022-11-15T23:37:58;40.20;;;18.23;;
20935;SDS011;10627;54.514;18.532;2022-11-15T23:42:59;38.33;;;19.03;;
20935;SDS011;10627;54.514;18.532;2022-11-15T23:48:00;41.43;;;19.37;;
20935;SDS011;10627;54.514;18.532;2022-11-15T23:53:01;38.53;;;16.50;;
20935;SDS011;10627;54.514;18.532;2022-11-15T23:58:02;44.27;;;18.17;;
